Time;durP1;ratioP1;P1;durP2;ratioP2;P2;SDS_P1;SDS_P2;PMS_P1;PMS_P2;Temp;Humidity;BMP_temperature;BMP_pressure;BME280_temperature;BME280_humidity;BME280_pressure;Samples;Min_cycle;Max_cycle;Signal;HPM_P1;HPM_P2
2022/08/10 00:00:24;;;;;;;0.82;0.82;;;14.60;99.90;;;;;;5098210;28;20486;-77
2022/08/10 00:02:52;;;;;;;0.40;0.30;;;14.50;99.90;;;;;;5115480;28;20024;-78
2022/08/10 00:05:18;;;;;;;0.47;0.47;;;14.40;99.90;;;;;;5097993;28;20098;-75
2022/08/10 00:07:44;;;;;;;1.38;1.02;;;14.40;99.90;;;;;;5119690;28;20078;-76
2022/08/10 00:10:11;;;;;;;3.22;1.13;;;14.30;99.90;;;;;;5118597;28;20028;-79
2022/08/10 00:12:37;;;;;;;1.58;1.10;;;14.30;99.90;;;;;;5114670;28;20057;-77
2022/08/10 00:15:05;;;;;;;0.77;0.77;;;14.30;99.90;;;;;;5115091;28;20016;-75
2022/08/10 00:17:30;;;;;;;0.50;0.40;;;14.30;99.90;;;;;;5115551;28;20020;-76
2022/08/10 00:19:56;;;;;;;0.77;0.75;;;14.30;99.90;;;;;;5098150;28;20493;-76
2022/08/10 00:22:22;;;;;;;0.60;0.52;;;14.20;99.90;;;;;;5114538;28;20110;-76
2022/08/10 00:24:48;;;;;;;0.20;0.20;;;14.20;99.90;;;;;;5114406;28;20046;-76
2022/08/10 00:27:13;;;;;;;1.13;0.85;;;14.20;99.90;;;;;;5117865;28;20042;-80
2022/08/10 00:29:39;;;;;;;0.70;0.70;;;14.20;99.90;;;;;;5116221;28;20107;-74
2022/08/10 00:32:05;;;;;;;0.77;0.77;;;14.10;99.90;;;;;;5114080;28;20020;-75
2022/08/10 00:34:31;;;;;;;2.13;1.08;;;14.10;99.90;;;;;;5114036;28;20404;-76
2022/08/10 00:36:58;;;;;;;0.35;0.35;;;14.10;99.90;;;;;;5114208;28;20068;-77
2022/08/10 00:39:24;;;;;;;0.52;0.52;;;14.10;99.90;;;;;;5114136;28;20024;-77
2022/08/10 00:41:50;;;;;;;0.40;0.40;;;14.10;99.90;;;;;;5114427;28;20015;-76
2022/08/10 00:44:16;;;;;;;0.30;0.30;;;14.20;99.90;;;;;;5115222;28;20488;-76
2022/08/10 00:46:41;;;;;;;0.38;0.38;;;14.20;99.90;;;;;;5114193;28;20375;-76
2022/08/10 00:49:07;;;;;;;0.30;0.30;;;14.20;99.90;;;;;;5114167;28;20074;-76
2022/08/10 00:51:33;;;;;;;0.32;0.32;;;14.20;99.90;;;;;;5113871;28;20038;-76
2022/08/10 00:53:59;;;;;;;2.55;0.60;;;14.20;99.90;;;;;;5113932;28;20043;-78
2022/08/10 00:56:26;;;;;;;0.32;0.32;;;14.20;99.90;;;;;;5114253;28;20361;-77
2022/08/10 00:58:52;;;;;;;1.38;0.50;;;14.20;99.90;;;;;;5113982;28;20020;-76
2022/08/10 01:01:17;;;;;;;1.58;1.48;;;14.20;99.90;;;;;;5095966;28;20042;-77
2022/08/10 01:03:43;;;;;;;0.45;0.45;;;14.20;99.90;;;;;;5114301;28;20098;-76
2022/08/10 01:06:33;;;;;;;0.30;0.30;;;14.20;99.90;;;;;;5114021;28;20068;-75
2022/08/10 01:09:33;;;;;;;0.35;0.35;;;14.20;99.90;;;;;;5113938;28;20472;-76
2022/08/10 01:12:18;;;;;;;2.25;0.57;;;14.20;99.90;;;;;;5064590;28;20054;-74
2022/08/10 01:14:51;;;;;;;0.60;0.60;;;14.20;99.90;;;;;;5113806;28;20020;-75
2022/08/10 01:17:30;;;;;;;0.60;0.60;;;14.20;99.90;;;;;;5095484;28;20076;-78
2022/08/10 01:19:59;;;;;;;0.52;0.52;;;14.10;99.90;;;;;;5113371;28;20153;-75
2022/08/10 01:22:54;;;;;;;0.85;0.85;;;14.00;99.90;;;;;;5113819;28;20031;-75
2022/08/10 01:25:40;;;;;;;0.43;0.43;;;13.90;99.90;;;;;;5114292;28;20047;-78
2022/08/10 01:28:24;;;;;;;0.45;0.45;;;14.00;99.90;;;;;;5096435;28;20135;-78
2022/08/10 01:30:54;;;;;;;0.30;0.30;;;14.00;99.90;;;;;;5097730;28;20023;-78
2022/08/10 01:33:34;;;;;;;0.80;0.80;;;13.90;99.90;;;;;;5116191;28;20027;-79
2022/08/10 01:36:11;;;;;;;1.10;0.77;;;13.80;99.90;;;;;;5098841;28;20110;-79
2022/08/10 01:38:41;;;;;;;0.47;0.47;;;13.70;99.90;;;;;;5097138;28;20027;-77
2022/08/10 01:41:33;;;;;;;0.40;0.40;;;13.70;99.90;;;;;;5116060;28;20028;-78
2022/08/10 01:44:04;;;;;;;0.35;0.35;;;13.70;99.90;;;;;;5082973;28;20384;-78
2022/08/10 01:46:32;;;;;;;4.47;1.33;;;13.60;99.90;;;;;;5115220;28;20024;-78
2022/08/10 01:49:01;;;;;;;0.55;0.55;;;13.60;99.90;;;;;;5114873;28;20023;-75
2022/08/10 01:51:31;;;;;;;0.22;0.22;;;13.60;99.90;;;;;;5115371;28;20020;-78
2022/08/10 01:54:02;;;;;;;0.60;0.60;;;13.50;99.90;;;;;;5113987;28;20071;-75
2022/08/10 01:56:35;;;;;;;0.55;0.40;;;13.50;99.90;;;;;;5117728;28;20034;-78
2022/08/10 01:59:06;;;;;;;0.75;0.75;;;13.50;99.90;;;;;;5118450;28;20020;-77
2022/08/10 02:01:38;;;;;;;7.10;1.08;;;13.50;99.90;;;;;;5118150;28;20077;-78
2022/08/10 02:04:08;;;;;;;0.57;0.57;;;13.40;99.90;;;;;;5117873;28;20299;-78
2022/08/10 02:06:49;;;;;;;0.60;0.60;;;13.40;99.90;;;;;;5117567;28;20016;-77
2022/08/10 02:09:29;;;;;;;0.85;0.82;;;13.30;99.90;;;;;;5117533;28;20028;-78
2022/08/10 02:12:00;;;;;;;0.50;0.50;;;13.30;99.90;;;;;;5117318;28;20016;-74
2022/08/10 02:14:32;;;;;;;17.70;1.80;;;13.30;99.90;;;;;;5117103;28;20106;-75
2022/08/10 02:17:05;;;;;;;0.30;0.30;;;13.30;99.90;;;;;;5117772;28;20039;-74
2022/08/10 02:19:34;;;;;;;0.70;0.63;;;13.30;99.90;;;;;;5117357;28;20049;-75
2022/08/10 02:22:01;;;;;;;0.50;0.50;;;13.20;99.90;;;;;;5117110;28;20076;-74
2022/08/10 02:24:28;;;;;;;0.63;0.63;;;13.10;99.90;;;;;;5117106;28;20483;-75
2022/08/10 02:26:55;;;;;;;0.57;0.57;;;13.10;99.90;;;;;;5116779;28;20067;-78
2022/08/10 02:29:21;;;;;;;1.00;1.00;;;13.10;99.90;;;;;;5098630;28;20098;-75
2022/08/10 02:31:48;;;;;;;0.95;0.50;;;13.00;99.90;;;;;;5116918;28;20028;-75
2022/08/10 02:34:14;;;;;;;0.50;0.50;;;12.90;99.90;;;;;;5098487;28;20024;-78
2022/08/10 02:36:48;;;;;;;0.82;0.82;;;12.90;99.90;;;;;;5116681;28;20031;-77
2022/08/10 02:39:16;;;;;;;0.57;0.52;;;12.90;99.90;;;;;;5116892;28;20027;-78
2022/08/10 02:41:56;;;;;;;0.35;0.35;;;12.90;99.90;;;;;;5116511;28;20024;-78
2022/08/10 02:44:43;;;;;;;0.70;0.70;;;12.90;99.90;;;;;;5116460;28;20149;-78
2022/08/10 02:47:20;;;;;;;0.38;0.38;;;12.80;99.90;;;;;;5116826;28;20483;-76
2022/08/10 02:50:21;;;;;;;0.60;0.60;;;12.80;99.90;;;;;;5117010;28;20384;-78
2022/08/10 02:52:51;;;;;;;0.45;0.43;;;12.80;99.90;;;;;;5116638;28;20105;-79
2022/08/10 02:55:45;;;;;;;0.57;0.57;;;12.80;99.90;;;;;;5116785;28;20032;-77
2022/08/10 02:58:14;;;;;;;1.48;1.38;;;12.80;99.90;;;;;;5116402;28;20027;-78
2022/08/10 03:00:47;;;;;;;0.57;0.57;;;12.80;99.90;;;;;;5116073;28;20023;-78
2022/08/10 03:03:18;;;;;;;0.30;0.30;;;12.70;99.90;;;;;;5116143;28;20098;-77
2022/08/10 03:05:52;;;;;;;0.50;0.50;;;12.70;99.90;;;;;;5115873;28;20016;-78
2022/08/10 03:08:23;;;;;;;4.22;1.48;;;12.80;99.90;;;;;;5115369;28;20111;-77
2022/08/10 03:10:51;;;;;;;1.05;1.05;;;12.80;99.90;;;;;;5115766;28;20051;-74
2022/08/10 03:13:17;;;;;;;2.50;0.90;;;12.80;99.90;;;;;;5116140;28;20468;-78
2022/08/10 03:15:45;;;;;;;1.48;0.65;;;12.70;99.90;;;;;;5115989;28;20069;-78
2022/08/10 03:18:12;;;;;;;0.60;0.60;;;12.60;99.90;;;;;;5115556;28;20031;-78
2022/08/10 03:20:41;;;;;;;0.35;0.35;;;12.50;99.90;;;;;;5115752;28;20402;-77
2022/08/10 03:23:16;;;;;;;0.47;0.47;;;12.50;99.90;;;;;;5115804;28;20035;-77
2022/08/10 03:25:44;;;;;;;0.55;0.40;;;12.40;99.90;;;;;;5115786;28;20020;-74
2022/08/10 03:28:11;;;;;;;0.70;0.70;;;12.40;99.90;;;;;;5097307;28;20109;-74
2022/08/10 03:30:38;;;;;;;0.28;0.28;;;12.40;99.90;;;;;;5115439;28;20020;-77
2022/08/10 03:33:06;;;;;;;1.65;0.60;;;12.40;99.90;;;;;;5115274;28;20023;-78
2022/08/10 03:35:33;;;;;;;0.30;0.30;;;12.50;99.90;;;;;;5115186;28;20015;-75
2022/08/10 03:38:00;;;;;;;0.63;0.63;;;12.50;99.90;;;;;;5115115;28;20028;-77
2022/08/10 03:40:28;;;;;;;1.45;0.50;;;12.60;99.90;;;;;;5115091;28;20038;-77
2022/08/10 03:42:55;;;;;;;0.55;0.55;;;12.50;99.90;;;;;;5114939;28;20031;-77
2022/08/10 03:45:22;;;;;;;0.47;0.47;;;12.40;99.90;;;;;;5115197;28;20015;-78
2022/08/10 03:47:50;;;;;;;0.70;0.70;;;12.30;99.90;;;;;;5097426;28;20353;-76
2022/08/10 03:50:16;;;;;;;0.52;0.52;;;12.30;99.90;;;;;;5115220;28;20019;-77
2022/08/10 03:52:43;;;;;;;0.43;0.43;;;12.20;99.90;;;;;;5114938;28;20404;-78
2022/08/10 03:55:10;;;;;;;0.65;0.65;;;12.20;99.90;;;;;;5115044;28;20020;-77
2022/08/10 03:57:37;;;;;;;0.68;0.68;;;12.10;99.90;;;;;;5115408;28;20020;-77
2022/08/10 04:00:08;;;;;;;1.05;0.80;;;12.10;99.90;;;;;;5114798;28;20160;-74
2022/08/10 04:02:34;;;;;;;0.80;0.80;;;12.00;99.90;;;;;;5114885;28;20026;-78
2022/08/10 04:05:00;;;;;;;5.35;0.70;;;12.00;99.90;;;;;;5114716;28;20368;-76
2022/08/10 04:07:27;;;;;;;0.63;0.63;;;12.00;99.90;;;;;;5114707;28;20028;-78
2022/08/10 04:09:52;;;;;;;0.40;0.40;;;12.00;99.90;;;;;;5114721;28;20019;-77
2022/08/10 04:12:19;;;;;;;0.47;0.47;;;12.00;99.90;;;;;;5114527;28;20024;-75
2022/08/10 04:14:45;;;;;;;0.68;0.68;;;11.90;99.90;;;;;;5114394;28;20103;-77
2022/08/10 04:17:11;;;;;;;1.02;1.02;;;12.00;99.90;;;;;;5114382;28;20430;-77
2022/08/10 04:19:43;;;;;;;0.60;0.60;;;12.00;99.90;;;;;;5114208;28;20020;-77
2022/08/10 04:22:24;;;;;;;0.80;0.57;;;12.00;99.90;;;;;;5114525;28;20016;-77
2022/08/10 04:24:55;;;;;;;0.60;0.60;;;12.00;99.90;;;;;;5114455;28;20027;-78
2022/08/10 04:27:22;;;;;;;0.32;0.32;;;12.00;99.90;;;;;;5114295;28;20028;-77
2022/08/10 04:29:50;;;;;;;0.60;0.60;;;12.00;99.90;;;;;;5114416;28;20092;-77
2022/08/10 04:32:19;;;;;;;0.75;0.75;;;12.00;99.90;;;;;;5114321;28;20048;-77
2022/08/10 04:34:46;;;;;;;0.80;0.65;;;12.00;99.90;;;;;;5114343;28;20024;-78
2022/08/10 04:37:14;;;;;;;0.90;0.90;;;11.90;99.90;;;;;;5114220;28;20417;-78
2022/08/10 04:39:40;;;;;;;0.73;0.73;;;11.90;99.90;;;;;;5114152;28;20030;-75
2022/08/10 04:42:06;;;;;;;1.00;1.00;;;11.90;99.90;;;;;;5114330;28;20024;-77
2022/08/10 04:44:33;;;;;;;0.68;0.68;;;11.90;99.90;;;;;;5114238;28;20046;-77
2022/08/10 04:47:04;;;;;;;0.70;0.70;;;11.90;99.90;;;;;;5114029;28;20023;-78
2022/08/10 04:49:30;;;;;;;0.82;0.82;;;11.90;99.90;;;;;;5114132;28;20538;-78
2022/08/10 04:51:56;;;;;;;2.08;0.57;;;12.10;99.90;;;;;;5113950;28;20114;-77
2022/08/10 04:54:24;;;;;;;1.17;1.05;;;12.10;99.90;;;;;;5114108;28;20459;-77
2022/08/10 04:56:50;;;;;;;1.90;1.48;;;12.20;99.90;;;;;;5114130;28;20027;-78
2022/08/10 04:59:16;;;;;;;1.02;0.85;;;12.30;99.90;;;;;;5114175;28;20388;-75
2022/08/10 05:01:43;;;;;;;0.52;0.52;;;12.40;99.90;;;;;;5114253;28;20024;-78
2022/08/10 05:04:08;;;;;;;0.75;0.75;;;12.40;99.90;;;;;;5114476;28;20020;-76
2022/08/10 05:06:34;;;;;;;0.30;0.30;;;12.60;99.90;;;;;;5114199;28;20038;-76
2022/08/10 05:09:00;;;;;;;0.70;0.70;;;12.60;99.90;;;;;;5113819;28;20024;-76
2022/08/10 05:11:26;;;;;;;0.70;0.70;;;12.70;99.90;;;;;;5113769;28;20525;-75
2022/08/10 05:13:52;;;;;;;0.88;0.70;;;12.80;99.90;;;;;;5113642;28;20121;-74
2022/08/10 05:16:18;;;;;;;0.60;0.60;;;13.00;99.90;;;;;;5113798;28;20483;-76
2022/08/10 05:18:43;;;;;;;0.60;0.60;;;13.10;99.90;;;;;;5113966;28;20023;-77
2022/08/10 05:21:09;;;;;;;0.55;0.55;;;13.30;99.90;;;;;;5113800;28;20058;-74
2022/08/10 05:23:35;;;;;;;0.45;0.45;;;13.40;99.90;;;;;;5113814;28;20051;-75
2022/08/10 05:26:01;;;;;;;0.73;0.73;;;13.50;99.90;;;;;;5113669;28;20031;-76
2022/08/10 05:28:26;;;;;;;0.50;0.50;;;13.60;99.90;;;;;;5095257;28;20391;-75
2022/08/10 05:30:52;;;;;;;0.98;0.82;;;13.70;99.90;;;;;;5116208;28;20016;-75
2022/08/10 05:33:18;;;;;;;1.23;0.57;;;13.80;99.90;;;;;;5117766;28;20388;-74
2022/08/10 05:35:43;;;;;;;0.40;0.40;;;14.00;99.90;;;;;;5117822;28;20073;-77
2022/08/10 05:38:11;;;;;;;1.02;0.77;;;14.30;99.90;;;;;;5117842;28;20027;-77
2022/08/10 05:40:38;;;;;;;1.48;1.00;;;14.60;99.90;;;;;;5117639;28;20101;-77
2022/08/10 05:43:04;;;;;;;0.40;0.40;;;14.70;99.90;;;;;;5117421;28;20035;-75
2022/08/10 05:45:30;;;;;;;0.85;0.85;;;14.70;99.90;;;;;;5098963;28;20020;-78
2022/08/10 05:47:56;;;;;;;0.57;0.57;;;14.80;99.90;;;;;;5117421;28;20077;-75
2022/08/10 05:50:29;;;;;;;0.60;0.60;;;14.90;99.90;;;;;;5121014;28;20345;-74
2022/08/10 05:52:56;;;;;;;0.77;0.77;;;14.90;99.90;;;;;;5120347;28;20050;-79
2022/08/10 05:55:23;;;;;;;0.50;0.50;;;15.10;99.90;;;;;;5120217;28;20019;-75
2022/08/10 05:57:50;;;;;;;1.25;0.70;;;15.20;99.90;;;;;;5120361;28;20043;-77
2022/08/10 06:00:19;;;;;;;2.65;1.08;;;15.30;99.90;;;;;;5117713;28;20235;-76
2022/08/10 06:02:48;;;;;;;0.68;0.68;;;15.50;99.90;;;;;;5116378;28;20035;-75
2022/08/10 06:05:24;;;;;;;;;;;15.70;99.90;;;;;;5116866;28;20027;-76
2022/08/10 06:07:58;;;;;;;0.40;0.40;;;15.90;99.90;;;;;;5116345;28;20417;-75
2022/08/10 06:10:24;;;;;;;0.20;0.20;;;16.20;99.90;;;;;;5116454;28;20046;-77
2022/08/10 06:15:39;;;;;;;0.68;0.68;;;16.50;99.90;;;;;;5074605;28;20492;-77
2022/08/10 06:18:05;;;;;;;1.65;0.45;;;16.80;99.90;;;;;;5116627;28;20030;-76
2022/08/10 06:20:32;;;;;;;0.30;0.30;;;17.00;99.90;;;;;;5117128;28;20016;-76
2022/08/10 06:23:02;;;;;;;0.73;0.73;;;17.10;99.90;;;;;;5116244;28;20020;-74
2022/08/10 06:25:29;;;;;;;2.67;1.67;;;17.30;99.90;;;;;;5116372;28;20121;-76
2022/08/10 06:27:56;;;;;;;0.65;0.60;;;17.40;99.90;;;;;;5116766;28;20023;-75
2022/08/10 06:30:23;;;;;;;4.20;0.80;;;17.60;99.90;;;;;;5116456;28;20048;-75
2022/08/10 06:32:51;;;;;;;0.57;0.40;;;17.90;99.90;;;;;;5116404;28;20447;-75
2022/08/10 06:35:18;;;;;;;0.63;0.63;;;18.40;99.90;;;;;;5097935;28;20028;-74
2022/08/10 06:37:45;;;;;;;0.50;0.50;;;18.50;99.90;;;;;;5116292;28;20111;-75
2022/08/10 06:40:12;;;;;;;1.35;0.80;;;18.60;99.90;;;;;;5116178;28;20054;-75
2022/08/10 06:42:42;;;;;;;3.28;0.75;;;18.70;99.90;;;;;;5115916;28;20023;-75
2022/08/10 06:45:46;;;;;;;0.50;0.50;;;18.60;99.90;;;;;;5116282;28;20027;-74
2022/08/10 06:48:33;;;;;;;0.68;0.68;;;18.60;99.90;;;;;;5095541;28;20611;-75
2022/08/10 06:51:03;;;;;;;8.77;1.33;;;18.50;99.90;;;;;;5116472;28;20028;-77
2022/08/10 06:53:36;;;;;;;0.65;0.60;;;18.60;99.90;;;;;;5116322;28;20044;-78
2022/08/10 06:56:11;;;;;;;0.30;0.30;;;18.60;99.90;;;;;;5116070;28;20028;-76
2022/08/10 06:58:51;;;;;;;1.67;0.90;;;18.60;99.90;;;;;;5097759;28;20020;-76
2022/08/10 07:01:21;;;;;;;2.20;0.70;;;18.60;99.90;;;;;;5098763;28;20023;-76
2022/08/10 07:04:14;;;;;;;0.30;0.30;;;18.70;99.90;;;;;;5098081;28;20487;-75
2022/08/10 07:06:44;;;;;;;9.50;1.25;;;19.00;99.90;;;;;;5115738;28;20019;-76
2022/08/10 07:09:14;;;;;;;;;;;19.30;99.90;;;;;;5115648;28;20024;-78
2022/08/10 07:11:42;;;;;;;0.30;0.30;;;20.00;99.90;;;;;;5096891;28;19907;-74
2022/08/10 07:14:11;;;;;;;0.50;0.50;;;21.70;95.00;;;;;;5115005;28;20084;-75
2022/08/10 07:16:40;;;;;;;0.20;0.20;;;23.40;82.40;;;;;;5115131;28;20028;-77
2022/08/10 07:19:08;;;;;;;0.30;0.30;;;24.10;73.20;;;;;;5114904;28;20023;-76
2022/08/10 07:21:35;;;;;;;0.30;0.30;;;24.90;68.00;;;;;;5096653;28;20050;-75
2022/08/10 07:24:01;;;;;;;0.30;0.30;;;25.40;64.90;;;;;;5114977;28;20028;-76
2022/08/10 07:26:29;;;;;;;0.35;0.35;;;25.90;63.60;;;;;;5114944;28;20031;-75
2022/08/10 07:28:57;;;;;;;0.20;0.20;;;26.40;62.70;;;;;;5096714;28;20040;-75
2022/08/10 07:31:23;;;;;;;0.30;0.28;;;26.20;61.00;;;;;;5114939;28;20476;-76
2022/08/10 07:33:54;;;;;;;1.15;0.80;;;26.10;61.20;;;;;;5114967;28;20070;-76
2022/08/10 07:36:22;;;;;;;0.32;0.30;;;25.60;60.80;;;;;;5114694;28;20480;-78
2022/08/10 07:38:52;;;;;;;0.43;0.43;;;25.60;60.80;;;;;;5114712;28;20539;-79
2022/08/10 07:41:21;;;;;;;1.60;0.80;;;25.50;61.00;;;;;;5114708;28;20030;-78
2022/08/10 07:43:48;;;;;;;0.30;0.30;;;25.00;61.50;;;;;;5114833;28;20535;-75
2022/08/10 07:46:15;;;;;;;1.27;0.70;;;24.40;62.90;;;;;;5114656;28;20032;-75
2022/08/10 07:48:46;;;;;;;0.88;0.50;;;24.30;64.70;;;;;;5114609;28;20046;-75
2022/08/10 07:51:12;;;;;;;0.50;0.50;;;24.00;64.60;;;;;;5114810;28;20095;-74
2022/08/10 07:53:44;;;;;;;0.30;0.30;;;23.50;65.70;;;;;;5113757;28;20051;-75
2022/08/10 07:56:11;;;;;;;0.40;0.32;;;24.00;66.20;;;;;;5114240;28;20020;-75
2022/08/10 07:59:05;;;;;;;0.43;0.43;;;25.00;62.50;;;;;;5114224;28;20471;-75
2022/08/10 08:01:33;;;;;;;0.20;0.20;;;25.80;61.00;;;;;;5114365;28;20404;-77
2022/08/10 08:04:00;;;;;;;0.30;0.30;;;26.50;59.80;;;;;;5114287;28;20030;-77
2022/08/10 08:06:29;;;;;;;10.43;2.35;;;26.80;58.80;;;;;;5114239;28;20543;-77
2022/08/10 08:08:57;;;;;;;0.40;0.40;;;27.00;58.40;;;;;;5114120;28;20036;-78
2022/08/10 08:11:25;;;;;;;1.05;0.25;;;26.80;58.40;;;;;;5095986;28;20068;-77
2022/08/10 08:13:52;;;;;;;1.48;0.80;;;27.30;58.70;;;;;;5114066;28;20468;-78
2022/08/10 08:16:19;;;;;;;0.30;0.30;;;28.50;55.10;;;;;;5114210;28;20031;-78
2022/08/10 08:18:47;;;;;;;0.40;0.40;;;29.40;53.00;;;;;;5114050;28;20016;-78
2022/08/10 08:21:13;;;;;;;0.20;0.20;;;29.80;52.40;;;;;;5114389;28;20174;-78
2022/08/10 08:23:41;;;;;;;5.88;1.55;;;30.30;51.80;;;;;;5114037;28;20023;-78
2022/08/10 08:26:08;;;;;;;0.70;0.60;;;29.60;52.80;;;;;;5114113;28;20020;-77
2022/08/10 08:28:36;;;;;;;0.20;0.20;;;29.30;52.10;;;;;;5114037;28;20107;-78
2022/08/10 08:31:03;;;;;;;0.47;0.47;;;28.70;52.30;;;;;;5113826;28;20015;-75
2022/08/10 08:33:30;;;;;;;0.10;0.10;;;29.60;51.70;;;;;;5113768;28;20051;-76
2022/08/10 08:35:57;;;;;;;0.40;0.40;;;29.20;51.90;;;;;;5113685;28;20027;-75
2022/08/10 08:38:23;;;;;;;0.52;0.43;;;29.20;51.70;;;;;;5113754;28;20103;-75
2022/08/10 08:41:21;;;;;;;0.30;0.30;;;29.10;52.20;;;;;;5113688;28;20015;-75
2022/08/10 08:44:26;;;;;;;0.20;0.20;;;29.40;51.50;;;;;;5113728;28;20073;-75
2022/08/10 08:47:10;;;;;;;0.15;0.15;;;29.60;50.80;;;;;;5113461;28;20074;-77
2022/08/10 08:50:03;;;;;;;0.20;0.20;;;29.40;52.40;;;;;;5095501;28;20031;-76
2022/08/10 08:52:46;;;;;;;1.02;0.90;;;28.00;52.70;;;;;;5113417;28;20047;-78
2022/08/10 08:55:30;;;;;;;0.20;0.20;;;27.30;54.10;;;;;;5113356;28;20012;-77
2022/08/10 08:58:34;;;;;;;0.68;0.47;;;27.00;54.20;;;;;;5113498;28;20099;-76
2022/08/10 09:01:02;;;;;;;0.55;0.55;;;27.10;55.00;;;;;;5113500;28;20027;-76
2022/08/10 09:03:57;;;;;;;0.30;0.30;;;27.10;56.30;;;;;;5113630;28;20035;-76
2022/08/10 09:07:06;;;;;;;0.43;0.43;;;27.20;54.50;;;;;;5117379;28;20015;-75
2022/08/10 09:09:58;;;;;;;6.75;1.73;;;27.20;54.20;;;;;;5117722;28;20034;-75
2022/08/10 09:12:37;;;;;;;3.35;0.40;;;27.70;53.80;;;;;;5117501;28;20034;-75
2022/08/10 09:15:15;;;;;;;;;;;27.50;54.30;;;;;;5117968;28;20127;-75
2022/08/10 09:17:54;;;;;;;0.20;0.20;;;27.40;53.70;;;;;;5117373;28;19958;-78
2022/08/10 09:20:33;;;;;;;0.30;0.30;;;27.50;53.40;;;;;;5117567;28;20023;-76
2022/08/10 09:23:37;;;;;;;0.38;0.28;;;27.00;54.10;;;;;;5117426;28;20028;-76
2022/08/10 09:26:16;;;;;;;2.05;1.55;;;26.70;55.50;;;;;;5116785;28;20427;-77
2022/08/10 09:28:43;;;;;;;0.45;0.45;;;27.00;54.40;;;;;;5117187;28;20084;-78
2022/08/10 09:31:10;;;;;;;0.30;0.30;;;26.80;55.10;;;;;;5117318;28;20448;-75
2022/08/10 09:33:46;;;;;;;1.27;0.35;;;26.80;54.10;;;;;;5098820;28;20464;-75
2022/08/10 09:36:33;;;;;;;1.75;0.25;;;27.00;54.40;;;;;;5117099;28;20106;-75
2022/08/10 09:39:04;;;;;;;0.35;0.35;;;27.20;53.40;;;;;;5117092;28;20464;-75
2022/08/10 09:41:34;;;;;;;1.85;0.63;;;27.30;54.30;;;;;;5117044;28;20056;-76
2022/08/10 09:44:30;;;;;;;0.15;0.15;;;27.60;52.90;;;;;;5117080;28;20030;-76
2022/08/10 09:47:17;;;;;;;1.38;1.20;;;27.20;53.20;;;;;;5116840;28;20492;-75
2022/08/10 09:49:58;;;;;;;0.40;0.40;;;27.40;53.30;;;;;;5117030;28;20812;-76
2022/08/10 09:52:33;;;;;;;1.20;1.10;;;27.60;52.70;;;;;;5116557;28;20071;-75
2022/08/10 09:55:24;;;;;;;0.30;0.30;;;27.90;51.80;;;;;;5116786;28;20016;-76
2022/08/10 09:58:16;;;;;;;0.22;0.22;;;28.00;51.40;;;;;;5116852;28;20016;-77
2022/08/10 10:00:54;;;;;;;0.90;0.40;;;28.10;51.00;;;;;;5116812;28;20027;-77
2022/08/10 10:03:35;;;;;;;0.43;0.30;;;28.10;51.60;;;;;;5116763;28;20049;-77
2022/08/10 10:06:20;;;;;;;0.28;0.28;;;28.60;52.00;;;;;;5116800;28;20521;-79
2022/08/10 10:09:10;;;;;;;0.20;0.20;;;28.30;50.80;;;;;;5098311;28;20032;-79
2022/08/10 10:11:45;;;;;;;0.25;0.25;;;28.70;50.00;;;;;;5116445;28;20069;-77
2022/08/10 10:14:28;;;;;;;2.30;1.20;;;28.10;50.50;;;;;;5116338;28;20031;-76
2022/08/10 10:17:02;;;;;;;0.20;0.20;;;27.70;51.60;;;;;;5116190;28;20471;-76
2022/08/10 10:19:45;;;;;;;0.15;0.10;;;30.40;53.20;;;;;;5116376;28;20028;-76
2022/08/10 10:22:40;;;;;;;0.30;0.30;;;28.00;51.10;;;;;;5116352;28;20015;-77
2022/08/10 10:25:22;;;;;;;0.20;0.20;;;28.60;51.60;;;;;;5116402;28;20047;-79
2022/08/10 10:28:25;;;;;;;0.20;0.20;;;29.00;49.90;;;;;;5116245;28;20027;-78
2022/08/10 10:31:03;;;;;;;0.20;0.20;;;29.40;49.20;;;;;;5116194;28;20020;-79
2022/08/10 10:33:55;;;;;;;0.20;0.20;;;29.60;48.40;;;;;;5097871;28;20039;-78
2022/08/10 10:36:22;;;;;;;0.55;0.43;;;29.80;47.80;;;;;;5115489;28;20036;-75
2022/08/10 10:38:49;;;;;;;0.25;0.25;;;30.20;48.10;;;;;;5116114;28;20083;-79
2022/08/10 10:41:48;;;;;;;0.30;0.30;;;30.50;47.30;;;;;;5116015;28;20116;-78
2022/08/10 10:44:31;;;;;;;0.35;0.20;;;30.40;46.50;;;;;;5116106;28;20027;-75
2022/08/10 10:47:06;;;;;;;0.20;0.20;;;30.50;47.40;;;;;;5115746;28;20028;-75
2022/08/10 10:49:58;;;;;;;0.20;0.20;;;30.40;47.30;;;;;;5115793;28;20034;-78
2022/08/10 10:52:50;;;;;;;0.20;0.20;;;30.40;47.10;;;;;;5115544;28;20039;-77
2022/08/10 10:55:21;;;;;;;9.30;1.35;;;29.70;47.40;;;;;;5115476;28;20031;-79
2022/08/10 10:57:58;;;;;;;0.20;0.20;;;29.60;47.80;;;;;;5097330;28;20379;-78
2022/08/10 11:00:32;;;;;;;0.35;0.35;;;30.20;47.00;;;;;;5115754;28;20026;-77
2022/08/10 11:03:40;;;;;;;0.28;0.28;;;30.60;47.00;;;;;;5115648;28;20020;-77
2022/08/10 11:06:36;;;;;;;1.10;0.45;;;31.20;46.90;;;;;;5104307;28;20031;-78
2022/08/10 11:09:08;;;;;;;0.30;0.20;;;31.40;45.60;;;;;;5115710;28;20049;-79
2022/08/10 11:11:37;;;;;;;0.10;0.10;;;31.10;45.90;;;;;;5115543;28;20015;-77
2022/08/10 11:14:32;;;;;;;0.57;0.15;;;30.90;46.30;;;;;;5115224;28;20496;-78
2022/08/10 11:17:12;;;;;;;0.20;0.20;;;31.30;46.90;;;;;;5115558;28;20051;-75
2022/08/10 11:20:14;;;;;;;0.10;0.10;;;31.50;44.70;;;;;;5115197;28;20019;-75
2022/08/10 11:23:02;;;;;;;0.10;0.10;;;32.00;44.40;;;;;;5115040;28;20049;-74
2022/08/10 11:25:35;;;;;;;0.30;0.30;;;31.80;44.60;;;;;;5115228;28;20031;-75
2022/08/10 11:28:38;;;;;;;0.20;0.20;;;31.20;44.40;;;;;;5113929;28;20053;-75
2022/08/10 11:31:15;;;;;;;0.20;0.20;;;30.50;44.80;;;;;;5096674;28;20031;-75
2022/08/10 11:34:25;;;;;;;0.30;0.30;;;30.80;45.40;;;;;;5114879;28;20023;-76
2022/08/10 11:37:03;;;;;;;1.38;0.22;;;31.70;45.40;;;;;;5110495;28;20383;-75
2022/08/10 11:39:46;;;;;;;0.25;0.25;;;31.80;43.20;;;;;;5114776;28;20020;-75
2022/08/10 11:42:30;;;;;;;0.22;0.22;;;32.20;43.30;;;;;;5114726;28;20023;-76
2022/08/10 11:45:07;;;;;;;0.20;0.20;;;32.60;42.20;;;;;;5114778;28;20039;-78
2022/08/10 11:47:39;;;;;;;0.40;0.40;;;32.40;42.50;;;;;;5114716;28;20036;-77
2022/08/10 11:50:32;;;;;;;0.40;0.40;;;32.90;43.60;;;;;;5114565;28;20076;-76
2022/08/10 11:53:16;;;;;;;1.17;0.30;;;33.60;42.50;;;;;;5114281;28;20457;-75
2022/08/10 11:55:48;;;;;;;0.22;0.20;;;33.20;42.00;;;;;;5114446;28;20103;-78
2022/08/10 12:01:05;;;;;;;0.60;0.30;;;33.30;41.10;;;;;;5114717;28;20035;-78
2022/08/10 12:03:31;;;;;;;0.73;0.57;;;34.00;41.00;;;;;;5114454;28;20069;-77
2022/08/10 12:05:58;;;;;;;1.17;0.28;;;34.20;40.30;;;;;;5114143;28;20019;-77
2022/08/10 12:08:28;;;;;;;0.30;0.30;;;35.10;40.50;;;;;;5114422;28;20514;-79
2022/08/10 12:10:54;;;;;;;0.20;0.20;;;35.30;39.40;;;;;;5113955;28;20030;-78
2022/08/10 12:13:49;;;;;;;0.20;0.20;;;35.60;38.90;;;;;;5114327;28;20098;-79
2022/08/10 12:16:21;;;;;;;0.20;0.20;;;35.70;38.90;;;;;;5099471;28;20391;-79
2022/08/10 12:19:07;;;;;;;0.80;0.80;;;34.80;39.50;;;;;;5114014;28;20020;-77
2022/08/10 12:21:41;;;;;;;0.40;0.30;;;34.40;40.20;;;;;;5114044;28;20051;-79
2022/08/10 12:24:22;;;;;;;0.65;0.10;;;34.60;39.70;;;;;;5114024;28;20042;-77
2022/08/10 12:26:56;;;;;;;0.20;0.20;;;34.60;39.20;;;;;;5114037;28;20106;-76
2022/08/10 12:29:36;;;;;;;0.57;0.20;;;34.70;39.80;;;;;;5113982;28;20024;-78
2022/08/10 12:32:05;;;;;;;0.20;0.20;;;34.80;40.60;;;;;;5113847;28;20011;-77
2022/08/10 12:34:49;;;;;;;0.25;0.25;;;35.10;38.90;;;;;;5114036;28;20016;-79
2022/08/10 12:37:47;;;;;;;0.77;0.20;;;35.30;38.90;;;;;;5113833;28;20012;-79
2022/08/10 12:40:14;;;;;;;0.32;0.32;;;35.50;40.00;;;;;;5042541;28;20514;-76
2022/08/10 12:43:08;;;;;;;0.30;0.30;;;36.20;38.60;;;;;;5113569;28;20034;-77
2022/08/10 12:46:02;;;;;;;0.20;0.20;;;36.50;38.90;;;;;;5113751;28;20026;-80
2022/08/10 12:48:37;;;;;;;0.60;0.60;;;36.80;37.50;;;;;;5113509;28;20031;-78
2022/08/10 12:51:08;;;;;;;0.17;0.17;;;36.50;37.70;;;;;;5113566;28;20468;-75
2022/08/10 12:53:47;;;;;;;0.20;0.20;;;36.70;38.00;;;;;;5113474;28;20048;-75
2022/08/10 12:56:28;;;;;;;0.20;0.20;;;37.30;37.90;;;;;;5113721;28;20022;-80
2022/08/10 12:58:55;;;;;;;0.30;0.30;;;37.60;37.00;;;;;;5113753;28;20030;-79
2022/08/10 13:01:28;;;;;;;0.70;0.00;;;38.20;35.40;;;;;;5113867;28;20049;-78
2022/08/10 13:03:59;;;;;;;0.28;0.28;;;38.10;35.50;;;;;;5113555;28;20026;-79
2022/08/10 13:06:26;;;;;;;0.20;0.20;;;36.50;35.60;;;;;;5113568;28;20020;-78
2022/08/10 13:09:08;;;;;;;0.20;0.20;;;36.20;36.80;;;;;;5113240;28;20080;-79
2022/08/10 13:11:55;;;;;;;0.10;0.10;;;36.60;36.70;;;;;;5113506;28;20024;-75
2022/08/10 13:14:53;;;;;;;0.80;0.32;;;35.60;37.30;;;;;;5080877;28;20035;-75
2022/08/10 13:17:28;;;;;;;0.10;0.10;;;35.90;37.20;;;;;;5109303;28;20110;-79
2022/08/10 13:19:56;;;;;;;0.45;0.20;;;35.50;37.80;;;;;;5095050;28;20484;-76
2022/08/10 13:22:24;;;;;;;0.20;0.20;;;36.20;38.10;;;;;;5113234;28;20020;-77
2022/08/10 13:24:51;;;;;;;0.87;0.20;;;36.90;37.00;;;;;;5095142;28;20023;-79
2022/08/10 13:27:22;;;;;;;0.20;0.20;;;37.80;36.20;;;;;;5113888;28;20035;-75